createdAt,value
2023-03-10T00:00:38.637Z,0.0
2023-03-10T00:01:38.011Z,0.6
2023-03-10T00:02:38.762Z,0.4
2023-03-10T00:03:38.940Z,0.8
2023-03-10T00:04:38.537Z,0.8
2023-03-10T00:05:38.291Z,0.2
2023-03-10T00:06:38.086Z,0.1
2023-03-10T00:07:38.952Z,0.3
2023-03-10T00:08:39.027Z,0.1
2023-03-10T00:09:38.396Z,0.6
2023-03-10T00:10:38.086Z,0.5
2023-03-10T00:11:38.820Z,0.3
2023-03-10T00:12:38.949Z,0.2
2023-03-10T00:13:38.476Z,0.6
2023-03-10T00:14:38.662Z,0.3
2023-03-10T00:15:38.165Z,0.6
2023-03-10T00:16:38.721Z,0.1
2023-03-10T00:17:38.948Z,0.2
2023-03-10T00:18:40.140Z,0.0
2023-03-10T00:19:38.141Z,0.4
2023-03-10T00:20:38.046Z,0.5
2023-03-10T00:21:38.744Z,0.2
2023-03-10T00:22:38.822Z,0.4
2023-03-10T00:23:38.375Z,0.6
2023-03-10T00:24:38.141Z,0.4
2023-03-10T00:25:38.836Z,0.4
2023-03-10T00:26:38.610Z,0.0
2023-03-10T00:27:38.401Z,0.0
2023-03-10T00:28:38.570Z,0.1
2023-03-10T00:29:38.078Z,0.4
2023-03-10T00:30:38.768Z,0.2
2023-03-10T00:31:38.598Z,0.5
2023-03-10T00:32:38.368Z,0.5
2023-03-10T00:33:38.457Z,0.2
2023-03-10T00:34:37.925Z,0.1
2023-03-10T00:35:38.736Z,0.3
2023-03-10T00:36:38.863Z,0.3
2023-03-10T00:37:38.271Z,0.4
2023-03-10T00:38:38.574Z,0.7
2023-03-10T00:39:38.752Z,0.4
2023-03-10T00:40:38.555Z,0.2
2023-03-10T00:41:38.329Z,0.4
2023-03-10T00:42:38.112Z,0.2
2023-03-10T00:43:37.914Z,0.0
2023-03-10T00:44:38.580Z,0.2
2023-03-10T00:45:38.410Z,0.4
2023-03-10T00:46:38.400Z,0.4
2023-03-10T00:47:38.016Z,0.8
2023-03-10T00:48:38.711Z,0.5
2023-03-10T00:49:38.558Z,0.2
2023-03-10T00:50:38.475Z,0.4
2023-03-10T00:51:38.287Z,0.1
2023-03-10T00:52:37.992Z,0.3
2023-03-10T00:53:39.502Z,0.2
2023-03-10T00:54:39.007Z,0.5
2023-03-10T00:55:38.212Z,0.8
2023-03-10T00:56:38.148Z,0.3
2023-03-10T00:57:38.813Z,0.6
2023-03-10T00:58:39.102Z,0.5
2023-03-10T00:59:50.018Z,0.4
2023-03-10T01:00:38.199Z,0.0
2023-03-10T01:01:38.966Z,0.2
2023-03-10T01:02:38.650Z,0.3
2023-03-10T01:03:38.481Z,0.5
2023-03-10T01:04:38.583Z,0.1
2023-03-10T01:05:38.194Z,0.3
2023-03-10T01:06:38.171Z,0.4
2023-03-10T01:07:38.714Z,0.1
2023-03-10T01:08:38.567Z,0.3
2023-03-10T01:09:38.309Z,0.2
2023-03-10T01:10:38.192Z,0.6
2023-03-10T01:11:37.900Z,0.4
2023-03-10T01:12:38.557Z,0.0
2023-03-10T01:13:40.951Z,0.1
2023-03-10T01:14:38.190Z,0.0
2023-03-10T01:15:38.393Z,0.4
2023-03-10T01:16:38.670Z,0.0
2023-03-10T01:17:38.576Z,0.1
2023-03-10T01:18:38.692Z,0.8
2023-03-10T01:19:38.125Z,0.7
2023-03-10T01:20:38.003Z,0.2
2023-03-10T01:21:38.754Z,0.5
2023-03-10T01:22:38.454Z,0.1
2023-03-10T01:23:38.232Z,0.2
2023-03-10T01:24:38.010Z,0.4
2023-03-10T01:25:38.798Z,0.6
2023-03-10T01:26:38.705Z,0.3
2023-03-10T01:27:38.451Z,0.4
2023-03-10T01:28:38.323Z,0.6
2023-03-10T01:29:38.015Z,0.4
2023-03-10T01:30:39.090Z,0.4
2023-03-10T01:31:38.542Z,0.6
2023-03-10T01:32:38.375Z,0.2
2023-03-10T01:33:38.553Z,0.4
2023-03-10T01:34:37.892Z,0.6
2023-03-10T01:35:39.152Z,0.2
2023-03-10T01:36:39.925Z,0.1
2023-03-10T01:37:38.204Z,0.0
2023-03-10T01:38:38.090Z,0.5
2023-03-10T01:39:38.702Z,0.2
2023-03-10T01:40:39.214Z,0.3
2023-03-10T01:41:38.955Z,0.1
2023-03-10T01:42:38.094Z,0.0
2023-03-10T01:43:39.340Z,0.0
2023-03-10T01:44:38.654Z,0.2
2023-03-10T01:45:43.333Z,0.3
2023-03-10T01:46:47.685Z,0.4
2023-03-10T01:47:38.090Z,0.4
2023-03-10T01:48:37.939Z,0.3
2023-03-10T01:49:43.417Z,0.0
2023-03-10T01:50:38.727Z,0.3
2023-03-10T01:51:40.146Z,0.3
2023-03-10T01:52:38.626Z,0.3
2023-03-10T01:53:38.940Z,0.3
2023-03-10T01:54:46.198Z,0.1
2023-03-10T01:55:40.604Z,0.0
2023-03-10T01:56:38.694Z,0.5
2023-03-10T01:57:45.668Z,0.2
2023-03-10T01:58:41.432Z,0.0
2023-03-10T01:59:39.398Z,0.8
2023-03-10T02:00:39.373Z,0.5
2023-03-10T02:01:38.081Z,0.7
2023-03-10T02:02:51.665Z,0.3
2023-03-10T02:03:46.194Z,0.2
2023-03-10T02:04:42.106Z,0.3
2023-03-10T02:05:40.816Z,0.5
2023-03-10T02:06:38.257Z,0.6
2023-03-10T02:07:41.418Z,0.1
2023-03-10T02:08:44.401Z,0.1
2023-03-10T02:09:40.314Z,0.4
2023-03-10T02:10:38.412Z,0.3
2023-03-10T02:11:37.904Z,0.4
2023-03-10T02:12:38.657Z,0.4
2023-03-10T02:13:38.535Z,0.6
2023-03-10T02:14:38.804Z,0.2
2023-03-10T02:15:38.853Z,0.5
2023-03-10T02:16:37.913Z,0.5
2023-03-10T02:17:39.240Z,0.6
2023-03-10T02:18:39.168Z,0.8
2023-03-10T02:19:51.687Z,0.7
2023-03-10T02:21:00.678Z,0.4
2023-03-10T02:21:43.153Z,0.2
2023-03-10T02:22:39.027Z,0.1
2023-03-10T02:23:51.364Z,0.4
2023-03-10T02:24:44.475Z,0.4
2023-03-10T02:25:51.707Z,0.2
2023-03-10T02:26:46.206Z,0.6
2023-03-10T02:27:38.838Z,0.0
2023-03-10T02:28:38.210Z,0.0
2023-03-10T02:29:52.435Z,0.6
2023-03-10T02:30:43.584Z,0.2
2023-03-10T02:31:38.986Z,0.0
2023-03-10T02:32:42.941Z,0.2
2023-03-10T02:33:38.217Z,0.2
2023-03-10T02:34:37.961Z,0.4
2023-03-10T02:35:38.728Z,0.5
2023-03-10T02:36:38.414Z,0.0
2023-03-10T02:37:38.238Z,0.1
2023-03-10T02:38:38.042Z,0.5
2023-03-10T02:39:38.793Z,0.3
2023-03-10T02:40:43.454Z,0.2
2023-03-10T02:41:38.792Z,0.7
2023-03-10T02:42:38.302Z,0.6
2023-03-10T02:43:38.037Z,0.7
2023-03-10T02:44:38.944Z,0.1
2023-03-10T02:45:39.822Z,0.5
2023-03-10T02:46:38.385Z,0.8
2023-03-10T02:47:38.116Z,0.3
2023-03-10T02:48:38.558Z,0.7
2023-03-10T02:49:41.167Z,0.4
2023-03-10T02:50:39.807Z,0.4
2023-03-10T02:51:42.227Z,0.5
2023-03-10T02:52:40.287Z,0.2
2023-03-10T02:53:38.754Z,0.0
2023-03-10T02:54:38.512Z,0.2
2023-03-10T02:55:38.747Z,0.1
2023-03-10T02:56:38.473Z,0.1
2023-03-10T02:57:37.947Z,0.0
2023-03-10T02:58:38.753Z,0.1
2023-03-10T02:59:38.580Z,0.4
2023-03-10T03:00:43.307Z,0.1
2023-03-10T03:01:38.124Z,0.2
2023-03-10T03:02:38.005Z,0.2
2023-03-10T03:03:38.715Z,0.5
2023-03-10T03:04:38.403Z,0.4
2023-03-10T03:05:38.584Z,0.3
2023-03-10T03:06:38.074Z,0.2
2023-03-10T03:07:38.738Z,0.1
2023-03-10T03:08:38.937Z,0.3
2023-03-10T03:09:38.368Z,0.1
2023-03-10T03:10:38.368Z,0.1
2023-03-10T03:11:38.032Z,0.4
2023-03-10T03:12:38.688Z,0.2
2023-03-10T03:13:38.572Z,0.0
2023-03-10T03:14:38.284Z,0.6
2023-03-10T03:15:38.139Z,0.2
2023-03-10T03:16:37.998Z,0.7
2023-03-10T03:17:38.605Z,0.0
2023-03-10T03:18:38.455Z,0.0
2023-03-10T03:19:38.239Z,0.3
2023-03-10T03:20:38.432Z,0.0
2023-03-10T03:21:37.944Z,0.2
2023-03-10T03:22:38.616Z,0.4
2023-03-10T03:23:38.624Z,0.4
2023-03-10T03:24:38.189Z,0.1
2023-03-10T03:25:39.139Z,0.3
2023-03-10T03:26:39.177Z,0.0
2023-03-10T03:27:38.691Z,0.1
2023-03-10T03:28:38.263Z,0.5
2023-03-10T03:29:38.093Z,0.3
2023-03-10T03:30:38.512Z,0.5
2023-03-10T03:31:38.644Z,0.1
2023-03-10T03:32:38.518Z,0.3
2023-03-10T03:33:38.208Z,0.1
2023-03-10T03:34:37.995Z,0.1
2023-03-10T03:35:38.883Z,0.2
2023-03-10T03:36:38.583Z,0.4
2023-03-10T03:37:38.450Z,0.5
2023-03-10T03:38:38.426Z,0.8
2023-03-10T03:39:38.163Z,0.0
2023-03-10T03:40:38.695Z,0.1
2023-03-10T03:41:38.555Z,0.2
2023-03-10T03:42:38.874Z,0.0
2023-03-10T03:43:38.147Z,0.2
2023-03-10T03:44:37.935Z,0.0
2023-03-10T03:45:38.622Z,0.2
2023-03-10T03:46:38.432Z,0.2
2023-03-10T03:47:38.316Z,0.2
2023-03-10T03:48:38.071Z,0.2
2023-03-10T03:49:39.054Z,0.2
2023-03-10T03:50:38.518Z,0.4
2023-03-10T03:51:38.366Z,0.1
2023-03-10T03:52:38.445Z,0.1
2023-03-10T03:53:37.979Z,0.0
2023-03-10T03:54:38.677Z,0.2
2023-03-10T03:55:38.549Z,0.0
2023-03-10T03:56:38.352Z,0.0
2023-03-10T03:57:38.371Z,0.6
2023-03-10T03:58:38.019Z,0.3
2023-03-10T03:59:38.719Z,0.2
2023-03-10T04:00:38.490Z,0.0
2023-03-10T04:01:38.242Z,0.0
2023-03-10T04:02:38.235Z,0.0
2023-03-10T04:03:38.873Z,0.2
2023-03-10T04:04:38.589Z,0.1
2023-03-10T04:05:38.646Z,0.2
2023-03-10T04:06:38.252Z,0.2
2023-03-10T04:07:39.006Z,0.2
2023-03-10T04:08:38.657Z,0.1
2023-03-10T04:09:39.331Z,0.0
2023-03-10T04:10:38.297Z,0.0
2023-03-10T04:11:38.121Z,0.4
2023-03-10T04:12:37.875Z,0.1
2023-03-10T04:13:38.700Z,0.2
2023-03-10T04:14:38.492Z,0.3
2023-03-10T04:15:38.392Z,0.6
2023-03-10T04:16:38.104Z,0.4
2023-03-10T04:17:37.939Z,0.5
2023-03-10T04:18:38.622Z,0.6
2023-03-10T04:19:38.390Z,0.1
2023-03-10T04:20:38.256Z,0.0
2023-03-10T04:21:38.014Z,0.1
2023-03-10T04:22:39.295Z,0.3
2023-03-10T04:23:38.602Z,0.5
2023-03-10T04:24:38.415Z,0.2
2023-03-10T04:25:39.851Z,0.1
2023-03-10T04:26:38.011Z,0.8
2023-03-10T04:27:38.617Z,0.4
2023-03-10T04:28:38.473Z,0.5
2023-03-10T04:29:38.268Z,0.7
2023-03-10T04:30:40.281Z,0.1
2023-03-10T04:31:38.281Z,0.6
2023-03-10T04:32:38.708Z,0.5
2023-03-10T04:33:38.415Z,0.6
2023-03-10T04:34:38.293Z,0.1
2023-03-10T04:35:41.854Z,0.2
2023-03-10T04:36:37.908Z,0.2
2023-03-10T04:37:38.773Z,0.7
2023-03-10T04:38:38.648Z,0.4
2023-03-10T04:39:38.211Z,0.4
2023-03-10T04:40:38.027Z,0.3
2023-03-10T04:41:38.694Z,0.3
2023-03-10T04:42:38.514Z,0.1
2023-03-10T04:43:40.093Z,0.4
2023-03-10T04:44:38.156Z,0.1
2023-03-10T04:45:38.057Z,0.1
2023-03-10T04:46:38.704Z,0.1
2023-03-10T04:47:38.489Z,0.3
2023-03-10T04:48:38.438Z,0.1
2023-03-10T04:49:38.023Z,0.0
2023-03-10T04:50:38.766Z,0.2
2023-03-10T04:51:38.565Z,0.6
2023-03-10T04:52:38.340Z,0.1
2023-03-10T04:53:38.565Z,0.3
2023-03-10T04:54:38.026Z,0.5
2023-03-10T04:55:38.701Z,0.4
2023-03-10T04:56:38.626Z,0.2
2023-03-10T04:57:38.677Z,0.9
2023-03-10T04:58:38.202Z,0.1
2023-03-10T04:59:37.937Z,0.0
2023-03-10T05:00:47.422Z,0.3
2023-03-10T05:01:38.520Z,0.4
2023-03-10T05:02:38.993Z,0.5
2023-03-10T05:03:38.136Z,0.6
2023-03-10T05:04:37.873Z,0.5
2023-03-10T05:05:38.909Z,0.5
2023-03-10T05:06:38.510Z,0.1
2023-03-10T05:07:38.207Z,0.1
2023-03-10T05:08:37.998Z,0.4
2023-03-10T05:09:38.766Z,0.5
2023-03-10T05:10:39.392Z,0.5
2023-03-10T05:11:38.406Z,0.0
2023-03-10T05:12:38.414Z,0.4
2023-03-10T05:13:38.055Z,0.2
2023-03-10T05:14:38.573Z,0.4
2023-03-10T05:15:39.154Z,0.2
2023-03-10T05:16:38.261Z,0.1
2023-03-10T05:17:38.119Z,0.0
2023-03-10T05:18:37.860Z,0.3
2023-03-10T05:19:38.704Z,0.0
2023-03-10T05:20:38.409Z,0.4
2023-03-10T05:21:38.240Z,0.4
2023-03-10T05:22:38.184Z,0.5
2023-03-10T05:23:38.750Z,0.0
2023-03-10T05:24:38.724Z,0.1
2023-03-10T05:25:38.939Z,0.2
2023-03-10T05:26:38.313Z,0.0
2023-03-10T05:27:38.068Z,0.4
2023-03-10T05:28:38.672Z,0.2
2023-03-10T05:29:38.476Z,0.1
2023-03-10T05:30:38.323Z,0.5
2023-03-10T05:31:38.142Z,0.3
2023-03-10T05:32:38.049Z,0.4
2023-03-10T05:33:39.042Z,0.4
2023-03-10T05:34:38.373Z,0.4
2023-03-10T05:35:38.370Z,0.4
2023-03-10T05:36:37.993Z,0.1
2023-03-10T05:37:40.139Z,0.1
2023-03-10T05:38:38.572Z,0.3
2023-03-10T05:39:38.403Z,0.5
2023-03-10T05:40:39.461Z,0.0
2023-03-10T05:41:38.094Z,0.2
2023-03-10T05:42:38.704Z,0.3
2023-03-10T05:43:38.874Z,0.3
2023-03-10T05:44:38.387Z,0.1
2023-03-10T05:45:38.117Z,0.1
2023-03-10T05:46:37.989Z,0.0
2023-03-10T05:47:38.752Z,0.1
2023-03-10T05:48:38.466Z,0.5
2023-03-10T05:49:38.921Z,0.3
2023-03-10T05:50:38.085Z,0.3
2023-03-10T05:51:37.914Z,0.3
2023-03-10T05:52:39.061Z,0.1
2023-03-10T05:53:38.688Z,0.0
2023-03-10T05:54:38.203Z,0.2
2023-03-10T05:55:38.033Z,0.1
2023-03-10T05:56:38.759Z,0.3
2023-03-10T05:57:38.540Z,0.2
2023-03-10T05:58:38.425Z,0.4
2023-03-10T05:59:38.161Z,0.0
2023-03-10T06:00:37.999Z,0.4
2023-03-10T06:01:38.813Z,0.2
2023-03-10T06:02:38.694Z,0.2
2023-03-10T06:03:38.436Z,0.2
2023-03-10T06:04:38.121Z,0.3
2023-03-10T06:05:37.915Z,0.3
2023-03-10T06:06:38.732Z,0.3
2023-03-10T06:07:38.911Z,0.4
2023-03-10T06:08:38.253Z,0.0
2023-03-10T06:09:38.085Z,0.0
2023-03-10T06:10:38.720Z,0.1
2023-03-10T06:11:38.558Z,0.3
2023-03-10T06:12:38.309Z,0.0
2023-03-10T06:13:38.124Z,0.2
2023-03-10T06:14:37.977Z,0.1
2023-03-10T06:15:39.604Z,0.1
2023-03-10T06:16:38.565Z,0.2
2023-03-10T06:17:38.299Z,0.0
2023-03-10T06:18:38.099Z,0.1
2023-03-10T06:19:37.962Z,0.5
2023-03-10T06:20:38.690Z,0.6
2023-03-10T06:21:38.352Z,0.0
2023-03-10T06:22:38.232Z,0.0
2023-03-10T06:23:38.428Z,0.1
2023-03-10T06:24:38.757Z,0.1
2023-03-10T06:25:38.773Z,0.2
2023-03-10T06:26:38.773Z,0.0
2023-03-10T06:27:38.190Z,0.3
2023-03-10T06:28:38.814Z,0.4
2023-03-10T06:29:38.643Z,0.3
2023-03-10T06:30:38.475Z,0.1
2023-03-10T06:31:38.337Z,0.2
2023-03-10T06:32:38.178Z,0.2
2023-03-10T06:33:37.979Z,0.3
2023-03-10T06:34:38.597Z,0.2
2023-03-10T06:35:38.553Z,0.5
2023-03-10T06:36:38.253Z,0.0
2023-03-10T06:37:38.098Z,0.0
2023-03-10T06:38:39.066Z,0.1
2023-03-10T06:39:38.621Z,0.3
2023-03-10T06:40:38.366Z,0.0
2023-03-10T06:41:38.202Z,0.1
2023-03-10T06:42:38.938Z,0.4
2023-03-10T06:43:38.936Z,0.0
2023-03-10T06:44:38.502Z,0.0
2023-03-10T06:45:41.536Z,0.2
2023-03-10T06:46:38.126Z,0.4
2023-03-10T06:47:38.001Z,0.1
2023-03-10T06:48:39.422Z,0.2
2023-03-10T06:49:38.360Z,0.3
2023-03-10T06:50:44.556Z,0.0
2023-03-10T06:51:38.002Z,0.2
2023-03-10T06:52:38.742Z,0.0
2023-03-10T06:53:38.554Z,0.2
2023-03-10T06:54:38.373Z,0.0
2023-03-10T06:55:38.210Z,0.0
2023-03-10T06:56:38.286Z,0.0
2023-03-10T06:57:38.827Z,0.2
2023-03-10T06:58:38.758Z,0.0
2023-03-10T06:59:38.277Z,0.0
2023-03-10T07:00:38.106Z,0.0
2023-03-10T07:01:38.083Z,0.2
2023-03-10T07:02:38.580Z,0.3
2023-03-10T07:03:38.384Z,0.4
2023-03-10T07:04:38.484Z,0.1
2023-03-10T07:05:38.050Z,0.2
2023-03-10T07:06:38.802Z,0.0
2023-03-10T07:07:38.515Z,0.0
2023-03-10T07:08:38.312Z,0.0
2023-03-10T07:09:38.161Z,0.2
2023-03-10T07:10:37.986Z,0.2
2023-03-10T07:11:38.695Z,0.0
2023-03-10T07:12:38.606Z,0.2
2023-03-10T07:13:38.290Z,0.1
2023-03-10T07:14:38.130Z,0.2
2023-03-10T07:15:39.950Z,0.2
2023-03-10T07:16:39.279Z,0.1
2023-03-10T07:17:38.396Z,0.1
2023-03-10T07:18:38.189Z,0.0
2023-03-10T07:19:37.989Z,0.1
2023-03-10T07:20:39.755Z,0.4
2023-03-10T07:21:38.520Z,0.2
2023-03-10T07:22:38.420Z,0.0
2023-03-10T07:23:38.347Z,0.0
2023-03-10T07:24:37.991Z,0.0
2023-03-10T07:25:38.939Z,0.0
2023-03-10T07:26:38.538Z,0.2
2023-03-10T07:27:38.669Z,0.0
2023-03-10T07:28:38.119Z,0.0
2023-03-10T07:29:37.897Z,0.1
2023-03-10T07:30:40.341Z,0.0
2023-03-10T07:31:38.432Z,0.1
2023-03-10T07:32:38.416Z,0.3
2023-03-10T07:33:38.289Z,0.2
2023-03-10T07:34:37.864Z,0.2
2023-03-10T07:35:38.557Z,0.1
2023-03-10T07:36:38.356Z,0.1
2023-03-10T07:37:39.482Z,0.2
2023-03-10T07:38:38.148Z,0.1
2023-03-10T07:39:38.749Z,0.1
2023-03-10T07:40:38.979Z,0.1
2023-03-10T07:41:38.369Z,0.1
2023-03-10T07:42:38.174Z,0.0
2023-03-10T07:43:38.004Z,0.1
2023-03-10T07:44:38.601Z,0.4
2023-03-10T07:45:38.419Z,0.2
2023-03-10T07:46:38.304Z,0.0
2023-03-10T07:47:38.128Z,0.0
2023-03-10T07:48:37.931Z,0.0
2023-03-10T07:49:38.656Z,0.1
2023-03-10T07:50:38.477Z,0.3
2023-03-10T07:51:38.273Z,0.2
2023-03-10T07:52:38.113Z,0.3
2023-03-10T07:53:38.057Z,0.1
2023-03-10T07:54:38.580Z,0.1
2023-03-10T07:55:38.408Z,0.4
2023-03-10T07:56:38.428Z,1.5
2023-03-10T07:57:38.000Z,0.9
2023-03-10T07:58:39.642Z,1.5
2023-03-10T07:59:39.024Z,1.7
2023-03-10T08:00:38.711Z,1.7
2023-03-10T08:01:38.194Z,1.3
2023-03-10T08:02:38.297Z,1.6
2023-03-10T08:03:38.792Z,0.7
2023-03-10T08:04:38.903Z,1.1
2023-03-10T08:05:41.592Z,1.8
2023-03-10T08:06:38.214Z,1.8
2023-03-10T08:07:38.253Z,1.5
2023-03-10T08:08:39.364Z,1.7
2023-03-10T08:09:39.007Z,1.6
2023-03-10T08:10:38.384Z,2.1
2023-03-10T08:11:38.194Z,2.7
2023-03-10T08:12:38.134Z,3.1
2023-03-10T08:13:39.218Z,1.9
2023-03-10T08:14:38.077Z,3.1
2023-03-10T08:15:38.879Z,3.4
2023-03-10T08:16:38.580Z,2.5
2023-03-10T08:17:38.452Z,3.7
2023-03-10T08:18:38.235Z,2.9
2023-03-10T08:19:39.066Z,2.4
2023-03-10T08:20:39.138Z,3.0
2023-03-10T08:21:38.885Z,4.6
2023-03-10T08:22:37.880Z,4.6
2023-03-10T08:23:39.382Z,5.7
2023-03-10T08:24:39.310Z,7.8
2023-03-10T08:25:38.290Z,6.2
2023-03-10T08:26:38.160Z,7.8
2023-03-10T08:27:38.219Z,5.8
2023-03-10T08:28:39.064Z,6.4
2023-03-10T08:29:39.056Z,4.6
2023-03-10T08:30:52.144Z,5.3
2023-03-10T08:31:38.151Z,5.2
2023-03-10T08:32:38.668Z,3.9
2023-03-10T08:33:38.752Z,4.2
2023-03-10T08:34:37.998Z,3.7
2023-03-10T08:35:38.877Z,4.3
2023-03-10T08:36:39.085Z,4.0
2023-03-10T08:37:38.863Z,2.9
2023-03-10T08:38:38.636Z,2.1
2023-03-10T08:39:38.907Z,2.4
2023-03-10T08:40:38.345Z,2.5
2023-03-10T08:41:42.489Z,2.4
2023-03-10T08:42:38.828Z,1.9
2023-03-10T08:43:38.945Z,2.4
2023-03-10T08:44:38.907Z,1.9
2023-03-10T08:45:38.187Z,2.0
2023-03-10T08:46:38.289Z,3.8
2023-03-10T08:47:38.724Z,3.1
2023-03-10T08:48:41.537Z,3.1
2023-03-10T08:49:38.374Z,2.5
2023-03-10T08:50:38.165Z,3.2
2023-03-10T08:51:38.269Z,2.1
2023-03-10T08:52:39.061Z,2.2
2023-03-10T08:53:38.833Z,2.1
2023-03-10T08:54:38.346Z,1.9
2023-03-10T08:55:38.154Z,1.9
2023-03-10T08:56:37.978Z,1.9
2023-03-10T08:57:38.760Z,2.2
2023-03-10T08:58:38.590Z,1.8
2023-03-10T08:59:38.311Z,1.3
2023-03-10T09:00:38.240Z,1.5
2023-03-10T09:01:38.130Z,1.8
2023-03-10T09:02:38.684Z,0.9
2023-03-10T09:03:39.208Z,1.4
2023-03-10T09:04:38.268Z,1.5
2023-03-10T09:05:38.084Z,1.5
2023-03-10T09:06:38.322Z,1.5
2023-03-10T09:07:38.724Z,1.6
2023-03-10T09:08:39.337Z,0.9
2023-03-10T09:09:38.259Z,1.7
2023-03-10T09:10:38.521Z,1.0
2023-03-10T09:11:39.291Z,1.2
2023-03-10T09:12:39.468Z,1.5
2023-03-10T09:13:38.518Z,1.2
2023-03-10T09:14:38.665Z,1.5
2023-03-10T09:15:38.756Z,1.7
2023-03-10T09:16:38.375Z,1.2
2023-03-10T09:17:40.604Z,1.2
2023-03-10T09:18:39.015Z,0.7
2023-03-10T09:19:38.627Z,1.2
2023-03-10T09:20:39.014Z,1.6
2023-03-10T09:21:38.332Z,1.4
2023-03-10T09:22:38.073Z,1.4
2023-03-10T09:23:40.356Z,1.5
2023-03-10T09:24:38.567Z,1.2
2023-03-10T09:25:38.474Z,1.4
2023-03-10T09:26:38.168Z,0.9
2023-03-10T09:27:37.948Z,1.0
2023-03-10T09:28:38.773Z,1.6
2023-03-10T09:29:43.126Z,1.2
2023-03-10T09:30:39.073Z,0.8
2023-03-10T09:31:38.432Z,0.8
2023-03-10T09:32:38.145Z,1.1
2023-03-10T09:33:38.614Z,1.2
2023-03-10T09:34:38.460Z,0.5
2023-03-10T09:35:41.891Z,0.9
2023-03-10T09:36:38.252Z,1.0
2023-03-10T09:37:38.807Z,1.2
2023-03-10T09:38:38.728Z,1.1
2023-03-10T09:39:38.476Z,1.0
2023-03-10T09:40:41.197Z,1.4
2023-03-10T09:41:48.738Z,1.2
2023-03-10T09:42:43.387Z,1.0
2023-03-10T09:43:40.633Z,1.3
2023-03-10T09:44:43.358Z,1.0
2023-03-10T09:45:43.337Z,0.8
2023-03-10T09:46:56.193Z,1.5
2023-03-10T09:47:43.592Z,0.9
2023-03-10T09:48:56.710Z,0.9
2023-03-10T09:49:42.808Z,0.6
2023-03-10T09:50:41.359Z,1.2
2023-03-10T09:51:41.998Z,1.1
2023-03-10T09:52:45.768Z,0.5
2023-03-10T09:53:55.282Z,0.3
2023-03-10T09:54:43.169Z,1.0
2023-03-10T09:55:47.055Z,1.0
2023-03-10T09:56:38.999Z,1.0
2023-03-10T09:57:38.782Z,1.1
2023-03-10T09:58:40.500Z,1.1
2023-03-10T09:59:39.883Z,1.0
2023-03-10T10:00:39.760Z,0.5
2023-03-10T10:01:40.412Z,0.8
2023-03-10T10:02:40.172Z,0.8
2023-03-10T10:03:52.602Z,0.9
2023-03-10T10:04:39.308Z,1.1
2023-03-10T10:05:38.770Z,1.1
2023-03-10T10:06:41.805Z,1.0
2023-03-10T10:07:52.287Z,0.9
2023-03-10T10:08:49.047Z,0.5
2023-03-10T10:09:42.009Z,0.5
2023-03-10T10:10:38.217Z,1.2
2023-03-10T10:11:38.837Z,1.4
2023-03-10T10:12:38.549Z,1.1
2023-03-10T10:13:40.518Z,1.2
2023-03-10T10:14:42.519Z,0.9
2023-03-10T10:15:40.198Z,0.9
2023-03-10T10:16:43.716Z,1.2
2023-03-10T10:18:05.506Z,0.9
2023-03-10T10:18:39.818Z,1.1
2023-03-10T10:19:38.230Z,0.8
2023-03-10T10:20:41.313Z,0.8
2023-03-10T10:21:54.053Z,0.9
2023-03-10T10:22:38.416Z,0.8
2023-03-10T10:23:40.258Z,0.5
2023-03-10T10:24:38.046Z,1.1
2023-03-10T10:25:41.026Z,1.1
2023-03-10T10:26:38.616Z,0.7
2023-03-10T10:27:39.729Z,0.7
2023-03-10T10:28:40.041Z,0.8
2023-03-10T10:29:38.006Z,0.5
2023-03-10T10:30:39.884Z,0.8
2023-03-10T10:31:38.652Z,0.5
2023-03-10T10:32:45.429Z,1.1
2023-03-10T10:33:48.769Z,1.0
2023-03-10T10:34:39.235Z,1.2
2023-03-10T10:35:41.036Z,0.9
2023-03-10T10:36:54.973Z,1.2
2023-03-10T10:37:41.266Z,0.9
2023-03-10T10:38:38.145Z,0.7
2023-03-10T10:39:40.987Z,0.8
2023-03-10T10:40:48.971Z,0.9
2023-03-10T10:41:38.483Z,1.2
2023-03-10T10:42:45.459Z,0.8
2023-03-10T10:43:41.938Z,0.6
2023-03-10T10:44:41.314Z,0.8
2023-03-10T10:45:39.117Z,0.9
2023-03-10T10:46:43.346Z,1.1
2023-03-10T10:47:53.157Z,1.1
2023-03-10T10:48:42.182Z,0.7
2023-03-10T10:49:37.908Z,1.1
2023-03-10T10:50:38.574Z,1.3
2023-03-10T10:51:38.413Z,0.9
2023-03-10T10:52:38.212Z,0.5
2023-03-10T10:53:39.229Z,0.7
2023-03-10T10:54:40.912Z,0.3
2023-03-10T10:55:39.392Z,0.5
2023-03-10T10:56:43.205Z,0.4
2023-03-10T10:57:38.168Z,0.7
2023-03-10T10:58:39.540Z,0.7
2023-03-10T10:59:38.662Z,0.6
2023-03-10T11:00:38.659Z,0.5
2023-03-10T11:01:45.820Z,1.1
2023-03-10T11:02:38.220Z,1.1
2023-03-10T11:03:39.025Z,0.8
2023-03-10T11:04:42.797Z,0.8
2023-03-10T11:05:38.425Z,0.6
2023-03-10T11:06:38.248Z,1.2
2023-03-10T11:07:38.118Z,0.6
2023-03-10T11:08:38.966Z,0.4
2023-03-10T11:09:38.539Z,0.5
2023-03-10T11:10:39.432Z,0.8
2023-03-10T11:11:43.011Z,1.0
2023-03-10T11:12:42.823Z,0.7
2023-03-10T11:13:43.614Z,0.4
2023-03-10T11:14:57.720Z,0.3
2023-03-10T11:15:48.836Z,0.9
2023-03-10T11:16:45.776Z,0.8
2023-03-10T11:17:48.802Z,0.7
2023-03-10T11:18:43.545Z,0.9
2023-03-10T11:19:56.719Z,0.1
2023-03-10T11:20:54.812Z,0.4
2023-03-10T11:21:41.404Z,0.7
2023-03-10T11:22:41.165Z,0.4
2023-03-10T11:23:43.555Z,0.6
2023-03-10T11:24:54.478Z,0.6
2023-03-10T11:25:48.763Z,0.7
2023-03-10T11:26:56.208Z,1.0
2023-03-10T11:27:56.719Z,0.4
2023-03-10T11:28:56.698Z,0.8
2023-03-10T11:29:45.926Z,0.4
2023-03-10T11:30:42.382Z,0.6
2023-03-10T11:31:40.460Z,0.7
2023-03-10T11:32:46.322Z,0.7
2023-03-10T11:33:49.306Z,0.8
2023-03-10T11:34:45.851Z,0.9
2023-03-10T11:35:39.736Z,0.6
2023-03-10T11:36:56.433Z,0.2
2023-03-10T11:37:50.372Z,0.7
2023-03-10T11:38:41.926Z,0.4
2023-03-10T11:39:45.816Z,0.5
2023-03-10T11:40:45.329Z,0.7
2023-03-10T11:41:40.601Z,0.6
2023-03-10T11:42:56.733Z,0.6
2023-03-10T11:43:43.221Z,0.7
2023-03-10T11:44:42.687Z,0.2
2023-03-10T11:45:42.385Z,0.6
2023-03-10T11:46:56.750Z,0.9
2023-03-10T11:47:46.362Z,0.8
2023-03-10T11:48:45.788Z,0.9
2023-03-10T11:49:39.414Z,0.7
2023-03-10T11:50:42.574Z,0.7
2023-03-10T11:51:41.739Z,0.9
2023-03-10T11:52:38.702Z,0.5
2023-03-10T11:53:41.210Z,0.7
2023-03-10T11:54:48.780Z,0.9
2023-03-10T11:55:40.076Z,0.2
2023-03-10T11:56:38.694Z,0.7
2023-03-10T11:57:44.354Z,0.6
2023-03-10T11:58:59.662Z,0.5
2023-03-10T11:59:42.797Z,0.6
2023-03-10T12:00:40.516Z,0.1
2023-03-10T12:01:44.377Z,0.6
2023-03-10T12:02:44.171Z,0.4
2023-03-10T12:03:45.153Z,0.6
2023-03-10T12:04:42.253Z,0.5
2023-03-10T12:05:42.824Z,0.5
2023-03-10T12:06:43.012Z,0.3
2023-03-10T12:07:45.785Z,0.5
2023-03-10T12:08:39.107Z,0.5
2023-03-10T12:09:40.591Z,0.4
2023-03-10T12:10:39.903Z,0.2
2023-03-10T12:11:38.574Z,0.4
2023-03-10T12:12:45.222Z,0.3
2023-03-10T12:13:56.730Z,0.7
2023-03-10T12:14:38.457Z,0.2
2023-03-10T12:15:38.040Z,0.5
2023-03-10T12:16:41.670Z,0.7
2023-03-10T12:17:39.328Z,0.5
2023-03-10T12:18:38.296Z,0.5
2023-03-10T12:19:56.217Z,0.1
2023-03-10T12:20:37.893Z,0.3
2023-03-10T12:21:38.728Z,0.6
2023-03-10T12:22:45.462Z,0.2
2023-03-10T12:23:39.570Z,0.5
2023-03-10T12:24:44.701Z,0.5
2023-03-10T12:25:41.848Z,0.4
2023-03-10T12:26:43.443Z,0.0
2023-03-10T12:27:43.218Z,0.6
2023-03-10T12:28:38.427Z,0.4
2023-03-10T12:29:39.235Z,0.7
2023-03-10T12:30:56.725Z,0.4
2023-03-10T12:31:43.455Z,0.6
2023-03-10T12:32:39.788Z,0.2
2023-03-10T12:33:41.694Z,0.2
2023-03-10T12:34:38.371Z,0.6
2023-03-10T12:35:46.652Z,0.6
2023-03-10T12:36:40.699Z,0.5
2023-03-10T12:37:38.346Z,0.5
2023-03-10T12:38:40.648Z,0.4
2023-03-10T12:39:41.959Z,0.0
2023-03-10T12:40:48.751Z,0.3
2023-03-10T12:41:41.397Z,0.6
2023-03-10T12:42:38.433Z,0.9
2023-03-10T12:43:42.933Z,0.6
2023-03-10T12:44:52.573Z,0.3
2023-03-10T12:45:42.851Z,0.1
2023-03-10T12:46:43.073Z,0.4
2023-03-10T12:47:43.038Z,0.0
2023-03-10T12:48:42.016Z,0.4
2023-03-10T12:49:46.295Z,0.2
2023-03-10T12:50:45.315Z,0.5
2023-03-10T12:51:40.575Z,0.3
2023-03-10T12:52:43.032Z,0.6
2023-03-10T12:53:55.318Z,0.2
2023-03-10T12:54:58.346Z,0.1
2023-03-10T12:55:41.113Z,0.4
2023-03-10T12:56:41.097Z,0.1
2023-03-10T12:58:00.837Z,0.7
2023-03-10T12:58:49.319Z,0.7
2023-03-10T12:59:45.077Z,0.5
2023-03-10T13:00:46.814Z,0.3
2023-03-10T13:01:49.544Z,0.5
2023-03-10T13:02:42.908Z,0.1
2023-03-10T13:03:46.374Z,0.6
2023-03-10T13:04:40.450Z,0.2
2023-03-10T13:05:40.412Z,0.2
2023-03-10T13:06:39.303Z,0.4
2023-03-10T13:07:43.671Z,0.2
2023-03-10T13:08:43.470Z,0.6
2023-03-10T13:09:39.582Z,0.6
2023-03-10T13:10:38.801Z,0.6
2023-03-10T13:11:42.010Z,0.1
2023-03-10T13:12:46.317Z,0.3
2023-03-10T13:13:39.027Z,0.3
2023-03-10T13:14:39.867Z,0.1
2023-03-10T13:15:38.111Z,0.5
2023-03-10T13:16:38.150Z,0.1
2023-03-10T13:17:38.689Z,0.5
2023-03-10T13:18:43.429Z,0.5
2023-03-10T13:19:38.283Z,0.5
2023-03-10T13:20:38.110Z,0.8
2023-03-10T13:21:39.132Z,0.6
2023-03-10T13:22:38.812Z,0.3
2023-03-10T13:23:42.288Z,0.4
2023-03-10T13:24:38.171Z,0.3
2023-03-10T13:25:37.924Z,0.1
2023-03-10T13:26:38.690Z,0.1
2023-03-10T13:27:38.508Z,0.1
2023-03-10T13:28:38.338Z,0.2
2023-03-10T13:29:38.645Z,0.0
2023-03-10T13:30:37.913Z,0.2
2023-03-10T13:31:38.605Z,0.7
2023-03-10T13:32:38.520Z,0.3
2023-03-10T13:33:52.316Z,0.1
2023-03-10T13:34:37.992Z,0.0
2023-03-10T13:35:38.840Z,0.0
2023-03-10T13:36:38.886Z,0.6
2023-03-10T13:37:38.338Z,0.2
2023-03-10T13:38:41.207Z,0.2
2023-03-10T13:39:37.942Z,0.2
2023-03-10T13:40:42.841Z,0.2
2023-03-10T13:41:39.841Z,0.0
2023-03-10T13:42:44.350Z,0.5
2023-03-10T13:43:39.575Z,0.4
2023-03-10T13:44:40.074Z,0.4
2023-03-10T13:45:38.664Z,0.2
2023-03-10T13:46:38.397Z,0.2